Time;durP1;ratioP1;P1;durP2;ratioP2;P2;SDS_P1;SDS_P2;PMS_P1;PMS_P2;Temp;Humidity;BMP_temperature;BMP_pressure;BME280_temperature;BME280_humidity;BME280_pressure;Samples;Min_cycle;Max_cycle;Signal;HPM_P1;HPM_P2
2022/04/10 00:00:44;;;;;;;15.07;3.05;;;;;;;;;;5032443;28;20515;-69
2022/04/10 00:03:11;;;;;;;13.77;2.17;;;;;;;;;;5030717;28;20041;-69
2022/04/10 00:05:37;;;;;;;18.85;2.30;;;;;;;;;;5012533;28;20030;-70
2022/04/10 00:08:04;;;;;;;19.67;3.63;;;;;;;;;;5013401;28;20068;-69
2022/04/10 00:10:30;;;;;;;19.55;2.63;;;;;;;;;;5031143;28;20670;-69
2022/04/10 00:12:56;;;;;;;16.85;2.17;;;;;;;;;;5025851;28;20040;-69
2022/04/10 00:15:22;;;;;;;21.80;3.58;;;;;;;;;;5014417;28;20038;-69
2022/04/10 00:17:48;;;;;;;16.10;2.63;;;;;;;;;;5028804;28;20037;-69
2022/04/10 00:20:14;;;;;;;14.05;2.00;;;;;;;;;;5030237;28;20029;-69
2022/04/10 00:22:44;;;;;;;17.80;2.92;;;;;;;;;;5030735;28;20033;-69
2022/04/10 00:25:12;;;;;;;12.75;2.47;;;;;;;;;;5030636;28;20029;-70
2022/04/10 00:27:38;;;;;;;18.88;2.65;;;;;;;;;;5029433;28;20032;-69
2022/04/10 00:30:05;;;;;;;15.80;2.63;;;;;;;;;;5031125;28;20227;-70
2022/04/10 00:32:31;;;;;;;15.73;2.08;;;;;;;;;;5030068;28;20026;-70
2022/04/10 00:34:57;;;;;;;20.70;2.97;;;;;;;;;;5028513;28;20429;-69
2022/04/10 00:37:23;;;;;;;18.13;2.65;;;;;;;;;;5028737;28;20566;-69
2022/04/10 00:39:49;;;;;;;13.38;2.00;;;;;;;;;;5014203;28;20025;-69
2022/04/10 00:42:15;;;;;;;20.55;3.05;;;;;;;;;;5017001;28;20037;-69
2022/04/10 00:44:41;;;;;;;19.08;3.97;;;;;;;;;;5034523;28;20095;-69
2022/04/10 00:47:10;;;;;;;12.65;2.60;;;;;;;;;;5026314;28;20029;-69
2022/04/10 00:49:36;;;;;;;13.13;1.67;;;;;;;;;;5030765;28;20034;-69
2022/04/10 00:52:02;;;;;;;13.50;2.33;;;;;;;;;;5032189;28;20473;-69
2022/04/10 00:54:31;;;;;;;13.82;1.98;;;;;;;;;;5023214;28;20056;-70
2022/04/10 00:56:58;;;;;;;19.90;3.83;;;;;;;;;;5029472;28;20053;-70
2022/04/10 00:59:25;;;;;;;13.05;2.42;;;;;;;;;;5029750;28;20080;-68
2022/04/10 01:01:51;;;;;;;16.00;2.40;;;;;;;;;;5014670;28;20631;-69
2022/04/10 01:04:17;;;;;;;15.40;2.40;;;;;;;;;;5027649;28;20464;-70
2022/04/10 01:06:44;;;;;;;26.95;4.68;;;;;;;;;;5031222;28;20021;-70
2022/04/10 01:09:10;;;;;;;10.27;2.70;;;;;;;;;;5029618;28;20061;-69
2022/04/10 01:11:36;;;;;;;23.60;3.42;;;;;;;;;;5027787;28;20033;-69
2022/04/10 01:14:07;;;;;;;14.55;2.80;;;;;;;;;;5029208;28;20066;-68
2022/04/10 01:16:34;;;;;;;9.13;1.63;;;;;;;;;;5031405;28;20469;-69
2022/04/10 01:19:02;;;;;;;13.77;2.28;;;;;;;;;;5010605;28;20350;-69
2022/04/10 01:21:29;;;;;;;15.82;2.08;;;;;;;;;;5018630;28;20473;-69
2022/04/10 01:23:56;;;;;;;18.05;2.65;;;;;;;;;;5030049;28;20473;-69
2022/04/10 01:26:23;;;;;;;14.85;2.00;;;;;;;;;;5030233;28;20033;-69
2022/04/10 01:28:59;;;;;;;18.55;2.75;;;;;;;;;;5028924;28;20100;-69
2022/04/10 01:31:26;;;;;;;14.35;2.22;;;;;;;;;;5027533;28;20489;-70
2022/04/10 01:33:54;;;;;;;14.63;2.03;;;;;;;;;;5028564;28;20048;-70
2022/04/10 01:36:20;;;;;;;13.50;2.83;;;;;;;;;;5030550;28;20032;-69
2022/04/10 01:38:46;;;;;;;12.50;1.55;;;;;;;;;;5029145;28;20072;-70
2022/04/10 01:41:15;;;;;;;14.02;3.22;;;;;;;;;;5012289;28;20033;-70
2022/04/10 01:43:46;;;;;;;13.43;1.95;;;;;;;;;;5022805;28;20030;-70
2022/04/10 01:46:15;;;;;;;7.95;1.38;;;;;;;;;;5028883;28;20056;-69
2022/04/10 01:48:41;;;;;;;16.50;2.63;;;;;;;;;;5043764;28;20041;-70
2022/04/10 01:51:08;;;;;;;12.45;2.58;;;;;;;;;;5027337;28;20037;-70
2022/04/10 01:53:34;;;;;;;27.65;3.92;;;;;;;;;;5030968;28;20025;-69
2022/04/10 01:56:00;;;;;;;18.73;2.20;;;;;;;;;;5029944;28;20021;-69
2022/04/10 01:58:26;;;;;;;15.88;1.85;;;;;;;;;;5028693;28;20485;-69
2022/04/10 02:00:52;;;;;;;20.98;2.55;;;;;;;;;;5029867;28;20542;-69
2022/04/10 02:03:18;;;;;;;22.50;2.47;;;;;;;;;;5028100;28;20097;-70
2022/04/10 02:05:45;;;;;;;16.38;1.83;;;;;;;;;;5008128;28;20030;-70
2022/04/10 02:08:11;;;;;;;20.98;2.42;;;;;;;;;;5028854;28;20026;-69
2022/04/10 02:10:37;;;;;;;12.95;1.75;;;;;;;;;;5011952;28;20058;-69
2022/04/10 02:13:03;;;;;;;17.65;2.03;;;;;;;;;;5029976;28;20046;-70
2022/04/10 02:15:29;;;;;;;16.80;2.20;;;;;;;;;;5028992;28;20057;-70
2022/04/10 02:17:55;;;;;;;8.40;1.77;;;;;;;;;;5019082;28;20034;-70
2022/04/10 02:20:21;;;;;;;17.08;2.40;;;;;;;;;;5002133;28;20022;-70
2022/04/10 02:22:47;;;;;;;14.95;1.88;;;;;;;;;;5010924;28;20030;-70
2022/04/10 02:25:13;;;;;;;23.55;2.95;;;;;;;;;;5035937;28;20056;-70
2022/04/10 02:27:39;;;;;;;12.57;1.73;;;;;;;;;;5029443;28;20037;-70
2022/04/10 02:30:06;;;;;;;12.50;1.75;;;;;;;;;;5027759;28;20048;-70
2022/04/10 02:32:32;;;;;;;19.73;2.67;;;;;;;;;;5027746;28;20038;-70
2022/04/10 02:34:58;;;;;;;13.85;1.73;;;;;;;;;;5010929;28;20026;-70
2022/04/10 02:37:24;;;;;;;12.25;1.67;;;;;;;;;;5030792;28;20064;-70
2022/04/10 02:39:50;;;;;;;16.40;1.83;;;;;;;;;;5034962;28;20037;-70
2022/04/10 02:42:16;;;;;;;18.10;1.90;;;;;;;;;;5012951;28;20038;-70
2022/04/10 02:44:42;;;;;;;12.98;1.58;;;;;;;;;;5025086;28;20445;-69
2022/04/10 02:47:08;;;;;;;13.10;1.85;;;;;;;;;;5014183;28;20374;-69
2022/04/10 02:49:35;;;;;;;10.80;1.83;;;;;;;;;;5016828;28;20045;-69
2022/04/10 02:52:01;;;;;;;13.32;1.65;;;;;;;;;;5031498;28;20056;-70
2022/04/10 02:54:27;;;;;;;7.18;1.55;;;;;;;;;;5033790;28;20037;-69
2022/04/10 02:56:53;;;;;;;10.48;1.23;;;;;;;;;;5031338;28;20086;-70
2022/04/10 02:59:19;;;;;;;12.35;1.98;;;;;;;;;;5032102;28;20025;-70
2022/04/10 03:01:47;;;;;;;14.60;1.90;;;;;;;;;;5031894;28;20053;-70
2022/04/10 03:04:13;;;;;;;7.90;1.23;;;;;;;;;;5033009;28;20041;-70
2022/04/10 03:06:39;;;;;;;8.07;1.08;;;;;;;;;;5029886;28;20065;-70
2022/04/10 03:09:05;;;;;;;12.38;1.33;;;;;;;;;;5022811;28;20061;-70
2022/04/10 03:11:31;;;;;;;4.57;0.93;;;;;;;;;;5011015;28;20045;-70
2022/04/10 03:13:57;;;;;;;6.15;0.70;;;;;;;;;;5014107;28;20022;-71
2022/04/10 03:16:23;;;;;;;4.15;0.60;;;;;;;;;;5010651;28;20038;-70
2022/04/10 03:18:51;;;;;;;7.18;1.30;;;;;;;;;;5010965;28;20077;-70
2022/04/10 03:21:17;;;;;;;6.10;1.00;;;;;;;;;;5011238;28;20042;-70
2022/04/10 03:23:44;;;;;;;6.93;0.70;;;;;;;;;;5011523;28;20053;-70
2022/04/10 03:26:10;;;;;;;7.05;0.60;;;;;;;;;;5011925;28;20389;-71
2022/04/10 03:28:36;;;;;;;5.20;0.63;;;;;;;;;;5009730;28;20030;-70
2022/04/10 03:31:02;;;;;;;3.95;1.10;;;;;;;;;;4994954;28;20045;-70
2022/04/10 03:33:28;;;;;;;6.43;0.68;;;;;;;;;;4991946;28;20034;-71
2022/04/10 03:35:54;;;;;;;3.63;0.82;;;;;;;;;;5012785;28;20170;-71
2022/04/10 03:38:21;;;;;;;8.82;1.08;;;;;;;;;;5001606;28;20034;-70
2022/04/10 03:40:47;;;;;;;3.08;0.75;;;;;;;;;;5012336;28;20113;-70
2022/04/10 03:43:13;;;;;;;3.15;0.80;;;;;;;;;;5012620;28;20026;-70
2022/04/10 03:45:39;;;;;;;3.60;1.00;;;;;;;;;;5011408;28;20085;-70
2022/04/10 03:48:09;;;;;;;10.48;2.35;;;;;;;;;;5001924;28;20048;-70
2022/04/10 03:50:35;;;;;;;6.93;0.88;;;;;;;;;;5011329;28;20026;-70
2022/04/10 03:53:02;;;;;;;8.63;1.20;;;;;;;;;;4999550;28;20030;-70
2022/04/10 03:55:28;;;;;;;8.63;1.67;;;;;;;;;;5004398;28;20100;-70
2022/04/10 03:57:54;;;;;;;25.05;11.57;;;;;;;;;;5002568;28;20505;-68
2022/04/10 04:00:20;;;;;;;6.75;1.52;;;;;;;;;;5011558;28;20039;-68
2022/04/10 04:02:47;;;;;;;10.20;2.03;;;;;;;;;;5007846;28;20071;-69
2022/04/10 04:05:13;;;;;;;7.93;2.30;;;;;;;;;;5008569;28;20038;-69
2022/04/10 04:07:40;;;;;;;9.15;2.08;;;;;;;;;;5006852;28;20065;-69
2022/04/10 04:10:07;;;;;;;6.60;1.02;;;;;;;;;;5005522;28;20536;-69
2022/04/10 04:12:34;;;;;;;4.72;0.98;;;;;;;;;;5010534;28;20465;-68
2022/04/10 04:15:00;;;;;;;6.25;1.00;;;;;;;;;;5010948;28;20046;-68
2022/04/10 04:17:26;;;;;;;6.72;1.08;;;;;;;;;;5010759;28;20041;-70
2022/04/10 04:19:53;;;;;;;6.93;0.75;;;;;;;;;;5011529;28;20038;-69
2022/04/10 04:22:20;;;;;;;5.57;1.00;;;;;;;;;;5010508;28;20049;-69
2022/04/10 04:24:46;;;;;;;8.75;1.38;;;;;;;;;;5010652;28;20030;-69
2022/04/10 04:27:12;;;;;;;11.50;1.35;;;;;;;;;;5008576;28;20048;-69
2022/04/10 04:29:38;;;;;;;6.95;1.15;;;;;;;;;;5010588;28;20037;-70
2022/04/10 04:32:05;;;;;;;7.82;1.23;;;;;;;;;;5011021;28;20036;-69
2022/04/10 04:34:31;;;;;;;5.57;0.80;;;;;;;;;;5009717;28;20030;-70
2022/04/10 04:36:57;;;;;;;9.68;1.45;;;;;;;;;;5003595;28;20600;-69
2022/04/10 04:39:23;;;;;;;9.35;2.13;;;;;;;;;;5008848;28;20064;-69
2022/04/10 04:41:50;;;;;;;7.28;1.98;;;;;;;;;;5004213;28;20486;-68
2022/04/10 04:44:16;;;;;;;13.35;2.28;;;;;;;;;;5003332;28;20394;-69
2022/04/10 04:46:42;;;;;;;7.75;2.78;;;;;;;;;;5011471;28;20018;-69
2022/04/10 04:49:09;;;;;;;13.32;2.33;;;;;;;;;;5009909;28;20598;-69
2022/04/10 04:51:36;;;;;;;12.77;2.00;;;;;;;;;;4997087;28;20026;-69
2022/04/10 04:54:09;;;;;;;10.40;3.80;;;;;;;;;;5001247;28;20032;-69
2022/04/10 04:56:35;;;;;;;;;;;;;;;;;;5012861;28;20034;-69
2022/04/10 04:59:01;;;;;;;10.02;4.38;;;;;;;;;;5006419;28;19916;-83
2022/04/10 05:01:27;;;;;;;19.05;6.20;;;;;;;;;;5001382;28;20029;-74
2022/04/10 05:03:53;;;;;;;9.20;3.17;;;;;;;;;;5006877;28;20496;-70
2022/04/10 05:06:20;;;;;;;10.00;2.15;;;;;;;;;;5005960;28;20045;-71
2022/04/10 05:08:48;;;;;;;9.40;1.65;;;;;;;;;;5014979;28;20088;-71
2022/04/10 05:11:15;;;;;;;5.43;1.23;;;;;;;;;;5024420;28;20031;-71
2022/04/10 05:13:41;;;;;;;8.70;1.15;;;;;;;;;;5000843;28;20030;-71
2022/04/10 05:16:07;;;;;;;13.63;1.80;;;;;;;;;;5026341;28;20044;-71
2022/04/10 05:18:33;;;;;;;8.73;2.80;;;;;;;;;;5025504;28;20033;-70
2022/04/10 05:21:00;;;;;;;8.82;2.60;;;;;;;;;;5017546;28;20037;-70
2022/04/10 05:23:26;;;;;;;6.40;1.17;;;;;;;;;;5018398;28;20382;-70
2022/04/10 05:25:52;;;;;;;8.13;1.20;;;;;;;;;;5017307;28;20097;-69
2022/04/10 05:28:18;;;;;;;8.57;1.70;;;;;;;;;;5030560;28;20092;-70
2022/04/10 05:30:44;;;;;;;14.85;1.00;;;;;;;;;;5030417;28;20121;-69
2022/04/10 05:33:11;;;;;;;7.18;1.30;;;;;;;;;;5031656;28;20025;-69
2022/04/10 05:35:37;;;;;;;10.70;1.40;;;;;;;;;;5031209;28;20044;-69
2022/04/10 05:38:03;;;;;;;9.63;1.50;;;;;;;;;;5028837;28;20124;-69
2022/04/10 05:40:29;;;;;;;12.02;1.85;;;;;;;;;;5017240;28;20148;-69
2022/04/10 05:42:55;;;;;;;8.88;1.58;;;;;;;;;;5024987;28;20025;-69
2022/04/10 05:45:21;;;;;;;11.32;1.35;;;;;;;;;;5039632;28;20025;-70
2022/04/10 05:47:48;;;;;;;6.97;1.30;;;;;;;;;;5031393;28;20038;-69
2022/04/10 05:50:14;;;;;;;9.82;2.25;;;;;;;;;;5026024;28;20025;-69
2022/04/10 05:52:41;;;;;;;8.52;1.00;;;;;;;;;;5012262;28;20022;-69
2022/04/10 05:55:08;;;;;;;6.38;1.38;;;;;;;;;;5038241;28;20040;-69
2022/04/10 05:57:34;;;;;;;8.70;1.90;;;;;;;;;;5012401;28;20384;-69
2022/04/10 06:00:01;;;;;;;8.43;1.83;;;;;;;;;;5013651;28;20029;-69
2022/04/10 06:02:27;;;;;;;7.28;1.27;;;;;;;;;;5030780;28;20034;-69
2022/04/10 06:04:53;;;;;;;6.90;1.45;;;;;;;;;;5024381;28;20100;-69
2022/04/10 06:07:19;;;;;;;4.78;1.05;;;;;;;;;;5030159;28;20091;-69
2022/04/10 06:09:46;;;;;;;7.40;1.38;;;;;;;;;;5029083;28;20055;-70
2022/04/10 06:12:12;;;;;;;6.95;0.95;;;;;;;;;;5027540;28;20074;-69
2022/04/10 06:14:38;;;;;;;7.40;0.85;;;;;;;;;;5028504;28;20041;-69
2022/04/10 06:17:04;;;;;;;9.10;1.00;;;;;;;;;;5012352;28;20075;-70
2022/04/10 06:19:30;;;;;;;4.38;1.38;;;;;;;;;;5031435;28;20505;-69
2022/04/10 06:21:56;;;;;;;5.22;0.82;;;;;;;;;;5034405;28;20038;-69
2022/04/10 06:24:22;;;;;;;9.43;0.95;;;;;;;;;;5034653;28;20450;-70
2022/04/10 06:26:49;;;;;;;9.18;1.65;;;;;;;;;;5032847;28;20044;-70
2022/04/10 06:29:16;;;;;;;9.18;1.27;;;;;;;;;;5025594;28;20437;-69
2022/04/10 06:31:42;;;;;;;3.92;0.60;;;;;;;;;;5026564;28;20044;-69
2022/04/10 06:34:08;;;;;;;6.93;0.93;;;;;;;;;;5036162;28;20037;-69
2022/04/10 06:36:34;;;;;;;10.45;1.48;;;;;;;;;;5038889;28;20044;-69
2022/04/10 06:39:00;;;;;;;6.78;1.35;;;;;;;;;;5032331;28;20149;-68
2022/04/10 06:41:26;;;;;;;5.35;0.90;;;;;;;;;;5033986;28;20045;-68
2022/04/10 06:43:52;;;;;;;9.95;1.30;;;;;;;;;;5046590;28;20037;-69
2022/04/10 06:46:18;;;;;;;13.65;1.58;;;;;;;;;;5031665;28;20126;-69
2022/04/10 06:48:44;;;;;;;11.75;1.52;;;;;;;;;;5032101;28;20458;-69
2022/04/10 06:51:10;;;;;;;14.98;2.42;;;;;;;;;;5038053;28;20034;-69
2022/04/10 06:53:36;;;;;;;13.02;1.58;;;;;;;;;;5024231;28;20691;-69
2022/04/10 06:56:02;;;;;;;13.95;1.40;;;;;;;;;;5017875;28;20461;-69
2022/04/10 06:58:29;;;;;;;15.35;1.85;;;;;;;;;;5014816;28;20124;-69
2022/04/10 07:00:55;;;;;;;7.00;1.17;;;;;;;;;;5026979;28;20033;-69
2022/04/10 07:03:21;;;;;;;12.32;1.60;;;;;;;;;;5032642;28;20087;-70
2022/04/10 07:05:48;;;;;;;11.68;1.35;;;;;;;;;;5030171;28;20083;-69
2022/04/10 07:08:15;;;;;;;14.50;2.17;;;;;;;;;;5018173;28;20489;-69
2022/04/10 07:10:41;;;;;;;10.20;1.45;;;;;;;;;;5016526;28;20065;-69
2022/04/10 07:13:08;;;;;;;10.43;1.60;;;;;;;;;;5027727;28;20122;-69
2022/04/10 07:15:34;;;;;;;12.60;2.13;;;;;;;;;;5032262;28;20457;-69
2022/04/10 07:18:00;;;;;;;13.55;2.05;;;;;;;;;;5033552;28;20087;-69
2022/04/10 07:20:27;;;;;;;6.65;1.40;;;;;;;;;;5032225;28;20060;-69
2022/04/10 07:25:38;;;;;;;5.45;1.17;;;;;;;;;;5023912;28;20055;-69
2022/04/10 07:28:04;;;;;;;8.32;1.65;;;;;;;;;;5032860;28;20045;-69
2022/04/10 07:30:31;;;;;;;10.45;1.83;;;;;;;;;;5031772;28;20021;-69
2022/04/10 07:32:58;;;;;;;11.55;2.40;;;;;;;;;;5032468;28;20069;-69
2022/04/10 07:35:27;;;;;;;7.32;2.22;;;;;;;;;;5031424;28;20049;-69
2022/04/10 07:37:53;;;;;;;14.10;2.08;;;;;;;;;;5012731;28;20077;-69
2022/04/10 07:40:19;;;;;;;10.35;1.73;;;;;;;;;;5032767;28;20505;-69
2022/04/10 07:42:46;;;;;;;7.43;1.42;;;;;;;;;;5033570;28;20025;-69
2022/04/10 07:47:58;;;;;;;8.70;2.42;;;;;;;;;;5026490;28;20048;-70
2022/04/10 07:50:24;;;;;;;12.98;2.47;;;;;;;;;;5021473;28;20030;-69
2022/04/10 07:52:50;;;;;;;14.13;2.00;;;;;;;;;;5028819;28;20060;-69
2022/04/10 07:55:16;;;;;;;10.88;1.60;;;;;;;;;;5027770;28;20044;-69
2022/04/10 07:57:42;;;;;;;8.52;1.58;;;;;;;;;;5029755;28;20056;-69
2022/04/10 08:00:09;;;;;;;9.85;1.90;;;;;;;;;;5032385;28;20029;-69
2022/04/10 08:02:35;;;;;;;10.90;1.50;;;;;;;;;;5007989;28;20034;-69
2022/04/10 08:05:01;;;;;;;11.13;2.13;;;;;;;;;;5022195;28;20060;-69
2022/04/10 08:07:27;;;;;;;10.48;1.88;;;;;;;;;;5029980;28;20029;-69
2022/04/10 08:09:54;;;;;;;12.05;1.67;;;;;;;;;;5032383;28;20053;-69
2022/04/10 08:12:20;;;;;;;10.35;2.17;;;;;;;;;;5029507;28;20109;-69
2022/04/10 08:14:46;;;;;;;14.63;1.98;;;;;;;;;;5031451;28;20080;-69
2022/04/10 08:17:12;;;;;;;7.82;1.30;;;;;;;;;;5025937;28;20030;-69
2022/04/10 08:19:41;;;;;;;8.48;1.95;;;;;;;;;;5044838;28;20041;-70
2022/04/10 08:22:07;;;;;;;11.80;1.55;;;;;;;;;;5031300;28;20033;-69
2022/04/10 08:24:34;;;;;;;11.18;2.22;;;;;;;;;;5031837;28;20066;-69
2022/04/10 08:27:00;;;;;;;12.75;1.98;;;;;;;;;;5030813;28;20604;-69
2022/04/10 08:29:26;;;;;;;8.20;1.45;;;;;;;;;;5030410;28;20095;-69
2022/04/10 08:31:52;;;;;;;12.50;1.30;;;;;;;;;;5035396;28;20017;-69
2022/04/10 08:34:18;;;;;;;8.40;1.30;;;;;;;;;;5034703;28;20055;-68
2022/04/10 08:36:44;;;;;;;9.63;1.90;;;;;;;;;;5047398;28;20026;-69
2022/04/10 08:39:10;;;;;;;7.82;1.80;;;;;;;;;;5030208;28;20095;-69
2022/04/10 08:41:37;;;;;;;8.77;1.42;;;;;;;;;;5038133;28;20091;-69
2022/04/10 08:44:04;;;;;;;15.23;2.58;;;;;;;;;;5031720;28;20388;-69
2022/04/10 08:46:30;;;;;;;9.93;1.15;;;;;;;;;;5029755;28;20038;-69
2022/04/10 08:48:58;;;;;;;9.75;1.98;;;;;;;;;;5031345;28;20048;-70
2022/04/10 08:51:25;;;;;;;12.57;1.88;;;;;;;;;;5029856;28;20112;-69
2022/04/10 08:53:53;;;;;;;8.48;1.38;;;;;;;;;;5030937;28;20030;-69
2022/04/10 08:56:19;;;;;;;10.23;1.67;;;;;;;;;;5031299;28;20040;-70
2022/04/10 08:58:45;;;;;;;7.47;1.50;;;;;;;;;;5031117;28;20152;-69
2022/04/10 09:01:12;;;;;;;11.57;1.75;;;;;;;;;;5029987;28;20045;-69
2022/04/10 09:03:41;;;;;;;8.80;1.52;;;;;;;;;;5029561;28;20043;-69
2022/04/10 09:06:10;;;;;;;8.35;1.17;;;;;;;;;;5030944;28;20029;-70
2022/04/10 09:08:38;;;;;;;10.68;2.00;;;;;;;;;;5029237;28;20129;-69
2022/04/10 09:11:05;;;;;;;12.60;2.20;;;;;;;;;;4994227;28;20032;-69
2022/04/10 09:13:38;;;;;;;11.77;1.98;;;;;;;;;;5009166;28;20181;-69
2022/04/10 09:16:09;;;;;;;9.10;1.40;;;;;;;;;;4993664;28;20030;-69
2022/04/10 09:18:54;;;;;;;7.63;1.33;;;;;;;;;;5010886;28;20038;-69
2022/04/10 09:21:21;;;;;;;6.57;1.40;;;;;;;;;;5011723;28;20038;-69
2022/04/10 09:23:58;;;;;;;8.88;1.30;;;;;;;;;;5009262;28;20092;-69
2022/04/10 09:26:25;;;;;;;12.82;1.77;;;;;;;;;;5011685;28;20034;-69
2022/04/10 09:28:51;;;;;;;11.23;1.48;;;;;;;;;;4993586;28;20046;-69
2022/04/10 09:31:24;;;;;;;9.55;1.45;;;;;;;;;;5010252;28;20041;-69
2022/04/10 09:33:52;;;;;;;11.50;1.75;;;;;;;;;;5009195;28;20034;-69
2022/04/10 09:36:28;;;;;;;14.40;1.80;;;;;;;;;;5011013;28;20429;-70
2022/04/10 09:38:54;;;;;;;10.65;1.75;;;;;;;;;;5011270;28;20477;-70
2022/04/10 09:41:20;;;;;;;7.50;1.30;;;;;;;;;;5022821;28;20457;-69
2022/04/10 09:43:46;;;;;;;10.45;1.45;;;;;;;;;;5009924;28;20510;-69
2022/04/10 09:46:15;;;;;;;6.07;1.92;;;;;;;;;;5010322;28;20065;-69
2022/04/10 09:48:41;;;;;;;10.75;2.28;;;;;;;;;;5010885;28;20121;-70
2022/04/10 09:51:10;;;;;;;10.35;1.20;;;;;;;;;;5010605;28;20022;-70
2022/04/10 09:53:36;;;;;;;8.73;1.73;;;;;;;;;;5016524;28;20116;-70
2022/04/10 09:56:03;;;;;;;7.03;1.30;;;;;;;;;;5022277;28;20032;-70
2022/04/10 09:58:30;;;;;;;8.57;1.35;;;;;;;;;;5014833;28;20042;-70
2022/04/10 10:00:56;;;;;;;8.32;1.13;;;;;;;;;;5010828;28;20057;-69
2022/04/10 10:03:23;;;;;;;6.15;1.20;;;;;;;;;;5014381;28;20061;-69
2022/04/10 10:05:53;;;;;;;9.90;1.80;;;;;;;;;;5015500;28;20029;-69
2022/04/10 10:08:19;;;;;;;6.65;1.65;;;;;;;;;;5013928;28;20038;-69
2022/04/10 10:10:45;;;;;;;12.13;1.35;;;;;;;;;;5021850;28;20050;-69
2022/04/10 10:13:13;;;;;;;10.07;1.40;;;;;;;;;;5013657;28;20113;-70
2022/04/10 10:15:39;;;;;;;11.63;1.40;;;;;;;;;;5013935;28;20017;-70
2022/04/10 10:18:06;;;;;;;5.18;1.35;;;;;;;;;;5006791;28;20093;-70
2022/04/10 10:20:33;;;;;;;7.15;1.02;;;;;;;;;;5014705;28;20018;-69
2022/04/10 10:23:04;;;;;;;8.90;2.13;;;;;;;;;;4995881;28;20068;-70
2022/04/10 10:25:34;;;;;;;4.43;1.00;;;;;;;;;;5014582;28;20034;-69
2022/04/10 10:28:19;;;;;;;7.82;1.52;;;;;;;;;;5014333;28;20045;-70
2022/04/10 10:30:48;;;;;;;5.63;1.10;;;;;;;;;;5011197;28;20026;-69
2022/04/10 10:33:25;;;;;;;9.18;1.50;;;;;;;;;;5020610;28;20029;-69
2022/04/10 10:35:52;;;;;;;9.00;1.20;;;;;;;;;;5013170;28;20092;-69
2022/04/10 10:38:25;;;;;;;13.30;1.25;;;;;;;;;;5014138;28;20468;-69
2022/04/10 10:40:52;;;;;;;10.88;1.88;;;;;;;;;;5013731;28;20018;-70
2022/04/10 10:43:20;;;;;;;6.43;1.48;;;;;;;;;;5023098;28;20025;-69
2022/04/10 10:45:46;;;;;;;7.30;1.25;;;;;;;;;;5013753;28;20033;-70
2022/04/10 10:48:30;;;;;;;10.32;1.48;;;;;;;;;;4997347;28;20050;-70
2022/04/10 10:51:00;;;;;;;8.75;1.30;;;;;;;;;;5013271;28;20034;-70
2022/04/10 10:53:45;;;;;;;6.70;1.25;;;;;;;;;;5014511;28;20029;-70
2022/04/10 10:56:20;;;;;;;6.13;1.10;;;;;;;;;;5012270;28;20274;-69
2022/04/10 10:58:50;;;;;;;9.20;1.27;;;;;;;;;;5014090;28;20037;-70
2022/04/10 11:01:19;;;;;;;6.43;1.20;;;;;;;;;;5013206;28;20042;-69
2022/04/10 11:04:01;;;;;;;6.05;1.65;;;;;;;;;;5013652;28;20590;-69
2022/04/10 11:06:31;;;;;;;8.95;1.40;;;;;;;;;;5012002;28;20084;-69
2022/04/10 11:09:16;;;;;;;7.63;1.15;;;;;;;;;;5011682;28;20049;-69
2022/04/10 11:11:42;;;;;;;5.57;1.65;;;;;;;;;;5034026;28;20073;-69
2022/04/10 11:14:28;;;;;;;5.82;1.42;;;;;;;;;;5032638;28;20037;-69
2022/04/10 11:16:54;;;;;;;6.35;1.20;;;;;;;;;;5032025;28;20087;-69
2022/04/10 11:19:23;;;;;;;7.60;1.27;;;;;;;;;;5014686;28;20405;-69
2022/04/10 11:21:49;;;;;;;11.38;1.20;;;;;;;;;;5033274;28;20049;-69
2022/04/10 11:24:22;;;;;;;8.20;1.38;;;;;;;;;;5032430;28;20048;-69
2022/04/10 11:26:48;;;;;;;6.25;1.15;;;;;;;;;;5031509;28;20393;-69
2022/04/10 11:29:15;;;;;;;7.65;1.65;;;;;;;;;;5033156;28;20037;-69
2022/04/10 11:31:46;;;;;;;6.35;1.17;;;;;;;;;;5037300;28;20036;-69
2022/04/10 11:34:12;;;;;;;6.03;0.90;;;;;;;;;;5037527;28;20056;-70
2022/04/10 11:36:50;;;;;;;11.20;1.02;;;;;;;;;;5032086;28;20108;-69
2022/04/10 11:39:16;;;;;;;6.93;1.00;;;;;;;;;;5027125;28;20173;-69
2022/04/10 11:41:43;;;;;;;5.45;0.90;;;;;;;;;;5033051;28;20342;-69
2022/04/10 11:44:09;;;;;;;5.45;1.30;;;;;;;;;;5045137;28;20377;-69
2022/04/10 11:46:36;;;;;;;9.07;1.23;;;;;;;;;;5014051;28;20025;-69
2022/04/10 11:49:04;;;;;;;10.13;1.25;;;;;;;;;;5032680;28;20128;-69
2022/04/10 11:51:30;;;;;;;7.85;0.90;;;;;;;;;;5032995;28;20113;-69
2022/04/10 11:53:58;;;;;;;5.78;0.98;;;;;;;;;;5032534;28;20053;-69
2022/04/10 11:56:25;;;;;;;3.13;0.85;;;;;;;;;;5029968;28;20131;-69
2022/04/10 11:58:51;;;;;;;5.32;0.77;;;;;;;;;;5032525;28;20029;-69
2022/04/10 12:01:19;;;;;;;6.78;0.77;;;;;;;;;;5032426;28;20029;-69
2022/04/10 12:03:49;;;;;;;4.82;1.00;;;;;;;;;;5041973;28;20028;-69
2022/04/10 12:06:21;;;;;;;4.28;1.27;;;;;;;;;;5042259;28;20025;-69
2022/04/10 12:08:48;;;;;;;3.88;1.33;;;;;;;;;;5031961;28;20039;-69
2022/04/10 12:11:15;;;;;;;3.70;0.80;;;;;;;;;;5029569;28;20034;-69
2022/04/10 12:13:41;;;;;;;7.05;1.30;;;;;;;;;;5031710;28;20103;-69
2022/04/10 12:16:11;;;;;;;3.75;0.80;;;;;;;;;;5031120;28;20025;-69
2022/04/10 12:18:47;;;;;;;4.03;1.02;;;;;;;;;;5030956;28;20044;-69
2022/04/10 12:21:14;;;;;;;5.15;1.00;;;;;;;;;;5032466;28;20032;-69
2022/04/10 12:23:40;;;;;;;6.90;1.48;;;;;;;;;;5014786;28;20045;-69
2022/04/10 12:26:06;;;;;;;4.72;0.88;;;;;;;;;;5013976;28;20033;-70
2022/04/10 12:28:32;;;;;;;4.80;1.10;;;;;;;;;;5031016;28;20053;-69
2022/04/10 12:31:00;;;;;;;7.28;1.17;;;;;;;;;;5029219;28;20452;-69
2022/04/10 12:33:27;;;;;;;7.88;1.08;;;;;;;;;;5033919;28;20153;-69
2022/04/10 12:35:53;;;;;;;4.65;0.90;;;;;;;;;;5032055;28;20351;-69
2022/04/10 12:38:19;;;;;;;5.97;1.60;;;;;;;;;;5029180;28;20381;-69
2022/04/10 12:40:45;;;;;;;7.95;0.98;;;;;;;;;;5031051;28;20116;-69
2022/04/10 12:43:15;;;;;;;5.38;1.27;;;;;;;;;;5031745;28;20033;-69
2022/04/10 12:45:42;;;;;;;4.60;1.60;;;;;;;;;;5037166;28;20037;-69
2022/04/10 12:48:20;;;;;;;6.78;1.38;;;;;;;;;;5029950;28;20095;-69
2022/04/10 12:50:48;;;;;;;7.15;1.25;;;;;;;;;;5030645;28;20068;-69
2022/04/10 12:53:15;;;;;;;7.60;1.48;;;;;;;;;;5031671;28;20417;-69
2022/04/10 12:55:41;;;;;;;7.18;1.55;;;;;;;;;;5029629;28;20036;-69
2022/04/10 12:58:07;;;;;;;7.20;1.50;;;;;;;;;;5018569;28;20490;-69
2022/04/10 13:00:34;;;;;;;5.70;1.10;;;;;;;;;;5029320;28;20036;-69
2022/04/10 13:03:18;;;;;;;7.18;1.08;;;;;;;;;;5031342;28;20041;-69
2022/04/10 13:06:01;;;;;;;6.57;1.23;;;;;;;;;;5012417;28;20048;-69
2022/04/10 13:08:27;;;;;;;;;;;;;;;;;;5014892;28;20038;-69
2022/04/10 13:10:56;;;;;;;7.13;1.10;;;;;;;;;;5028602;28;20357;-69
2022/04/10 13:13:22;;;;;;;6.75;0.90;;;;;;;;;;5012295;28;20112;-69
2022/04/10 13:15:48;;;;;;;6.85;1.13;;;;;;;;;;5014089;28;20032;-69
2022/04/10 13:18:15;;;;;;;6.63;1.38;;;;;;;;;;5030874;28;20049;-69
2022/04/10 13:20:41;;;;;;;6.28;1.00;;;;;;;;;;5015245;28;20045;-69
2022/04/10 13:23:08;;;;;;;7.55;0.95;;;;;;;;;;4993842;28;20030;-70
2022/04/10 13:25:36;;;;;;;7.45;1.08;;;;;;;;;;5030896;28;20038;-70
2022/04/10 13:28:06;;;;;;;6.60;1.10;;;;;;;;;;5030529;28;20041;-69
2022/04/10 13:30:32;;;;;;;5.75;1.63;;;;;;;;;;5023052;28;20095;-69
2022/04/10 13:33:00;;;;;;;4.03;0.93;;;;;;;;;;5031420;28;20381;-69
2022/04/10 13:35:26;;;;;;;6.70;1.05;;;;;;;;;;5030353;28;20099;-69
2022/04/10 13:37:52;;;;;;;10.52;1.25;;;;;;;;;;5029803;28;20018;-69
2022/04/10 13:40:20;;;;;;;2.60;0.70;;;;;;;;;;5030854;28;20030;-69
2022/04/10 13:42:47;;;;;;;2.58;0.88;;;;;;;;;;5029955;28;20096;-69
2022/04/10 13:45:13;;;;;;;7.20;1.08;;;;;;;;;;5039078;28;20030;-69
2022/04/10 13:47:40;;;;;;;5.70;0.70;;;;;;;;;;5030896;28;20022;-69
2022/04/10 13:50:07;;;;;;;4.82;1.20;;;;;;;;;;5031514;28;20021;-69
2022/04/10 13:52:34;;;;;;;3.28;0.65;;;;;;;;;;5028205;28;20527;-69
2022/04/10 13:55:00;;;;;;;5.85;2.13;;;;;;;;;;5030193;28;20525;-69
2022/04/10 13:57:26;;;;;;;7.13;0.75;;;;;;;;;;5029626;28;20021;-69
2022/04/10 13:59:52;;;;;;;5.15;0.82;;;;;;;;;;5031646;28;20100;-69
2022/04/10 14:02:18;;;;;;;14.45;1.10;;;;;;;;;;5029935;28;20025;-69
2022/04/10 14:04:45;;;;;;;6.25;0.90;;;;;;;;;;5025929;28;20030;-69
2022/04/10 14:07:11;;;;;;;6.25;0.90;;;;;;;;;;5029878;28;20471;-69
2022/04/10 14:09:38;;;;;;;4.72;0.90;;;;;;;;;;5027924;28;20057;-69
2022/04/10 14:12:05;;;;;;;4.78;0.82;;;;;;;;;;5030887;28;20025;-69
2022/04/10 14:14:32;;;;;;;5.72;0.85;;;;;;;;;;5028974;28;20048;-69
2022/04/10 14:17:02;;;;;;;5.50;1.02;;;;;;;;;;5013250;28;20041;-69
2022/04/10 14:19:28;;;;;;;3.88;0.60;;;;;;;;;;5028140;28;20104;-70
2022/04/10 14:21:55;;;;;;;5.15;1.48;;;;;;;;;;5030109;28;20460;-70
2022/04/10 14:24:21;;;;;;;6.63;1.10;;;;;;;;;;5030729;28;20040;-69
2022/04/10 14:26:47;;;;;;;5.22;1.20;;;;;;;;;;5030108;28;20033;-70
2022/04/10 14:29:13;;;;;;;4.95;0.98;;;;;;;;;;5028827;28;20037;-70
2022/04/10 14:31:46;;;;;;;4.30;0.95;;;;;;;;;;5033982;28;20037;-69
2022/04/10 14:34:13;;;;;;;3.95;1.65;;;;;;;;;;5035480;28;20372;-69
2022/04/10 14:36:39;;;;;;;2.90;0.68;;;;;;;;;;5012949;28;20032;-70
2022/04/10 14:39:05;;;;;;;2.25;0.95;;;;;;;;;;5032074;28;20392;-69
2022/04/10 14:41:31;;;;;;;4.60;0.75;;;;;;;;;;5032383;28;20410;-70
2022/04/10 14:43:58;;;;;;;5.22;0.40;;;;;;;;;;5033696;28;20045;-70